Time;durP1;ratioP1;P1;durP2;ratioP2;P2;SDS_P1;SDS_P2;PMS_P1;PMS_P2;Temp;Humidity;BMP_temperature;BMP_pressure;BME280_temperature;BME280_humidity;BME280_pressure;Samples;Min_cycle;Max_cycle;Signal;HPM_P1;HPM_P2
2023/07/06 00:01:55;;;;;;;5.18;3.03;;;;;;;19.61;62.11;99551.69;5091751;28;20082;-80
2023/07/06 00:04:21;;;;;;;4.55;2.95;;;;;;;19.63;62.35;99552.38;5093235;28;20434;-80
2023/07/06 00:06:47;;;;;;;7.47;3.03;;;;;;;19.55;62.29;99554.81;5096212;28;20456;-80
2023/07/06 00:09:14;;;;;;;4.85;2.97;;;;;;;19.41;62.28;99532.19;5095750;28;20102;-80
2023/07/06 00:11:40;;;;;;;4.45;2.47;;;;;;;19.38;61.75;99540.41;5096269;28;20123;-80
2023/07/06 00:14:07;;;;;;;4.28;3.08;;;;;;;19.35;61.90;99535.38;5095794;28;20024;-80
2023/07/06 00:16:33;;;;;;;5.15;2.75;;;;;;;19.33;62.23;99539.94;5096100;28;20059;-80
2023/07/06 00:18:59;;;;;;;2.92;2.67;;;;;;;19.46;62.05;99560.88;5096132;28;20024;-80
2023/07/06 00:21:30;;;;;;;2.80;2.60;;;;;;;19.31;62.14;99544.53;5095845;28;20141;-80
2023/07/06 00:23:55;;;;;;;4.33;2.60;;;;;;;19.46;62.59;99568.78;5095430;28;20073;-80
2023/07/06 00:26:21;;;;;;;3.40;3.10;;;;;;;19.30;62.31;99550.78;5095787;28;20052;-80
2023/07/06 00:28:50;;;;;;;4.47;3.05;;;;;;;19.36;62.60;99574.03;5095888;28;20032;-80
2023/07/06 00:31:40;;;;;;;4.65;3.35;;;;;;;19.31;62.67;99565.66;5095467;28;20020;-80
2023/07/06 00:34:05;;;;;;;5.40;3.33;;;;;;;19.15;62.50;99558.19;5095508;28;20060;-80
2023/07/06 00:36:32;;;;;;;3.47;2.78;;;;;;;19.05;62.90;99552.00;5095454;28;20081;-80
2023/07/06 00:39:01;;;;;;;4.40;3.22;;;;;;;19.10;62.66;99578.00;5095585;28;20028;-80
2023/07/06 00:41:26;;;;;;;4.90;3.22;;;;;;;19.06;62.86;99582.69;5095599;28;20453;-80
2023/07/06 00:43:54;;;;;;;4.90;3.25;;;;;;;18.91;62.80;99568.13;5095609;28;20100;-80
2023/07/06 00:46:21;;;;;;;4.05;3.08;;;;;;;18.97;63.42;99588.75;5095495;28;20032;-80
2023/07/06 00:48:49;;;;;;;4.88;3.00;;;;;;;18.87;63.55;99577.25;5095271;28;20032;-80
2023/07/06 00:51:20;;;;;;;6.00;2.97;;;;;;;18.72;63.43;99563.53;5095119;28;20024;-80
2023/07/06 00:54:03;;;;;;;3.65;3.15;;;;;;;18.62;63.55;99563.41;5095382;28;20024;-80
2023/07/06 00:56:36;;;;;;;4.15;2.97;;;;;;;18.50;64.13;99559.16;5095188;28;20200;-80
2023/07/06 00:59:05;;;;;;;4.13;2.83;;;;;;;18.49;64.01;99564.53;5094849;28;20035;-80
2023/07/06 01:01:34;;;;;;;4.65;3.22;;;;;;;18.46;64.02;99576.16;5095168;28;20016;-80
2023/07/06 01:04:01;;;;;;;4.15;3.65;;;;;;;18.50;64.42;99592.56;5094939;28;20028;-80
2023/07/06 01:06:32;;;;;;;3.80;2.88;;;;;;;18.25;64.59;99562.91;5095334;28;20538;-80
2023/07/06 01:08:58;;;;;;;3.78;2.67;;;;;;;18.36;65.04;99602.41;5094885;28;20027;-80
2023/07/06 01:11:24;;;;;;;4.05;3.22;;;;;;;18.34;65.00;99592.97;5095024;28;20028;-80
2023/07/06 01:13:52;;;;;;;3.85;3.15;;;;;;;18.25;65.13;99583.16;5094797;28;20420;-80
2023/07/06 01:16:36;;;;;;;3.58;3.03;;;;;;;18.19;66.27;99593.22;5094547;28;20043;-80
2023/07/06 01:19:07;;;;;;;3.97;3.35;;;;;;;18.11;66.20;99595.63;5094601;28;20076;-80
2023/07/06 01:22:17;;;;;;;3.58;2.80;;;;;;;18.05;66.96;99596.09;5094768;28;20056;-80
2023/07/06 01:25:13;;;;;;;4.13;3.15;;;;;;;17.92;67.66;99600.66;5093584;28;20056;-80
2023/07/06 01:27:59;;;;;;;4.55;3.17;;;;;;;17.85;67.63;99597.66;5094746;28;20483;-80
2023/07/06 01:30:39;;;;;;;5.40;3.05;;;;;;;17.78;68.24;99601.75;5094488;28;20028;-80
2023/07/06 01:33:15;;;;;;;4.50;3.30;;;;;;;17.52;68.99;99574.72;5094395;28;20069;-80
2023/07/06 01:35:47;;;;;;;4.88;3.40;;;;;;;17.62;69.30;99617.84;5094498;28;20103;-80
2023/07/06 01:38:12;;;;;;;5.20;3.28;;;;;;;17.43;69.99;99597.31;5094275;28;20030;-80
2023/07/06 01:40:38;;;;;;;4.97;3.50;;;;;;;17.31;70.83;99578.97;5094279;28;20028;-80
2023/07/06 01:43:03;;;;;;;6.68;3.17;;;;;;;17.43;70.97;99605.22;5094089;28;20055;-80
2023/07/06 01:45:30;;;;;;;4.22;3.22;;;;;;;17.26;70.97;99592.50;5094483;28;20070;-80
2023/07/06 01:48:00;;;;;;;4.57;3.20;;;;;;;17.11;71.14;99572.59;5092879;28;20036;-79
2023/07/06 01:50:57;;;;;;;4.05;3.03;;;;;;;17.23;71.42;99597.97;5094127;28;20035;-80
2023/07/06 01:53:43;;;;;;;4.80;3.15;;;;;;;17.15;72.04;99606.47;5094174;28;20112;-80
2023/07/06 01:56:18;;;;;;;7.18;3.45;;;;;;;17.03;72.50;99604.75;5093918;28;20111;-80
2023/07/06 01:58:59;;;;;;;4.25;3.10;;;;;;;17.02;73.12;99612.72;5093971;28;20475;-80
2023/07/06 02:01:38;;;;;;;4.30;3.17;;;;;;;16.88;73.93;99605.88;5093706;28;20055;-80
2023/07/06 02:04:07;;;;;;;6.53;3.42;;;;;;;16.83;74.13;99597.47;5093578;28;20476;-80
2023/07/06 02:06:33;;;;;;;3.83;3.03;;;;;;;16.83;74.37;99606.22;5093868;28;20062;-79
2023/07/06 02:08:58;;;;;;;4.30;3.10;;;;;;;16.62;74.53;99581.44;5093561;28;20494;-80
2023/07/06 02:11:24;;;;;;;3.50;3.08;;;;;;;16.54;75.00;99579.38;5093917;28;20115;-80
2023/07/06 02:13:50;;;;;;;4.80;2.80;;;;;;;16.57;75.52;99591.47;5093658;28;20022;-80
2023/07/06 02:16:15;;;;;;;6.32;3.20;;;;;;;16.44;76.01;99578.38;5093248;28;20110;-80
2023/07/06 02:18:42;;;;;;;4.32;3.38;;;;;;;16.44;76.44;99594.13;5094190;28;20480;-80
2023/07/06 02:21:09;;;;;;;3.38;3.08;;;;;;;16.50;76.58;99611.25;5093417;28;20055;-80
2023/07/06 02:23:34;;;;;;;5.60;3.40;;;;;;;16.42;76.95;99614.41;5093665;28;20032;-80
2023/07/06 02:25:59;;;;;;;5.15;3.28;;;;;;;16.40;76.62;99608.44;5092963;28;20032;-80
2023/07/06 02:28:25;;;;;;;3.88;2.97;;;;;;;16.29;76.64;99596.06;5093214;28;20024;-80
2023/07/06 02:30:54;;;;;;;6.10;2.90;;;;;;;16.20;76.69;99594.09;5093351;28;20047;-79
2023/07/06 02:33:20;;;;;;;4.90;3.50;;;;;;;16.23;77.12;99601.75;5093185;28;20081;-80
2023/07/06 02:35:45;;;;;;;7.30;3.67;;;;;;;16.14;77.29;99600.63;5093290;28;20103;-80
2023/07/06 02:38:19;;;;;;;5.18;4.18;;;;;;;16.12;77.79;99592.00;5093371;28;20099;-80
2023/07/06 02:40:46;;;;;;;5.60;3.50;;;;;;;16.13;78.17;99600.72;5093576;28;20024;-80
2023/07/06 02:43:12;;;;;;;5.30;3.80;;;;;;;16.05;78.70;99606.50;5092814;28;20048;-80
2023/07/06 02:45:37;;;;;;;7.45;3.35;;;;;;;16.18;78.58;99624.88;5092973;28;20443;-80
2023/07/06 02:48:04;;;;;;;5.40;3.20;;;;;;;15.94;78.33;99593.28;5093022;28;20111;-80
2023/07/06 02:50:30;;;;;;;4.28;3.28;;;;;;;16.06;78.15;99623.13;5093022;28;20032;-80
2023/07/06 02:52:56;;;;;;;4.15;3.22;;;;;;;15.96;77.95;99604.50;5093104;28;20024;-80
2023/07/06 02:55:22;;;;;;;4.13;3.47;;;;;;;15.96;78.10;99615.84;5092822;28;20107;-80
2023/07/06 02:57:48;;;;;;;6.22;3.10;;;;;;;15.99;78.16;99620.06;5092767;28;20107;-80
2023/07/06 03:00:16;;;;;;;3.45;2.92;;;;;;;15.98;78.01;99628.91;5092959;28;20110;-80
2023/07/06 03:02:43;;;;;;;6.60;3.35;;;;;;;15.98;78.37;99617.56;5092917;28;20031;-80
2023/07/06 03:05:09;;;;;;;4.18;3.20;;;;;;;16.14;78.50;99644.44;5093053;28;20089;-80
2023/07/06 03:07:34;;;;;;;4.43;3.60;;;;;;;16.00;78.96;99619.13;5092814;28;20028;-80
2023/07/06 03:10:08;;;;;;;6.07;3.10;;;;;;;16.20;79.03;99639.59;5092735;28;20114;-80
2023/07/06 03:12:36;;;;;;;5.13;3.65;;;;;;;16.13;79.10;99632.25;5092449;28;20055;-80
2023/07/06 03:15:11;;;;;;;4.47;3.22;;;;;;;16.20;79.32;99641.38;5092591;28;20028;-80
2023/07/06 03:17:38;;;;;;;5.47;3.83;;;;;;;16.18;79.89;99630.13;5092734;28;20035;-80
2023/07/06 03:20:13;;;;;;;4.57;3.35;;;;;;;16.19;79.77;99635.28;5092233;28;20490;-81
2023/07/06 03:22:40;;;;;;;5.15;3.70;;;;;;;16.10;79.81;99617.56;5092487;28;20111;-80
2023/07/06 03:25:08;;;;;;;3.50;3.00;;;;;;;16.17;80.21;99631.91;5092356;28;20104;-80
2023/07/06 03:27:36;;;;;;;4.75;3.50;;;;;;;16.28;79.97;99652.19;5092715;28;20024;-80
2023/07/06 03:30:04;;;;;;;12.25;3.85;;;;;;;16.17;80.55;99620.56;5092532;28;20031;-80
2023/07/06 03:32:30;;;;;;;6.25;3.67;;;;;;;16.38;80.61;99649.75;5092384;28;20459;-80
2023/07/06 03:34:55;;;;;;;3.80;3.03;;;;;;;16.45;81.18;99656.28;5092595;28;20034;-80
2023/07/06 03:37:21;;;;;;;6.85;4.13;;;;;;;16.46;81.02;99653.53;5091973;28;20044;-80
2023/07/06 03:39:47;;;;;;;6.78;4.07;;;;;;;16.44;80.70;99651.97;5092317;28;20024;-80
2023/07/06 03:42:13;;;;;;;6.40;4.10;;;;;;;16.47;80.11;99657.00;5092307;28;20028;-80
2023/07/06 03:44:39;;;;;;;8.00;4.10;;;;;;;16.41;80.05;99639.03;5092691;28;20032;-80
2023/07/06 03:47:06;;;;;;;6.35;3.92;;;;;;;16.59;79.99;99663.16;5092096;28;20107;-80
2023/07/06 03:49:34;;;;;;;5.20;3.60;;;;;;;16.58;79.97;99664.97;5092354;28;20028;-80
2023/07/06 03:52:02;;;;;;;6.18;4.10;;;;;;;16.43;79.97;99632.72;5091996;28;20032;-81
2023/07/06 03:54:27;;;;;;;8.27;4.15;;;;;;;16.67;79.73;99661.66;5092198;28;20149;-80
2023/07/06 03:56:53;;;;;;;6.97;3.90;;;;;;;16.66;79.66;99660.00;5092210;28;20055;-80
2023/07/06 03:59:19;;;;;;;7.72;4.30;;;;;;;16.85;81.18;99685.00;5091948;28;20024;-80
2023/07/06 04:01:44;;;;;;;5.57;4.05;;;;;;;16.73;81.68;99662.22;5092039;28;20455;-80
2023/07/06 04:04:10;;;;;;;8.35;4.35;;;;;;;17.02;80.92;99691.69;5091830;28;20047;-80
2023/07/06 04:06:40;;;;;;;4.55;3.80;;;;;;;17.01;80.90;99677.69;5091949;28;20024;-80
2023/07/06 04:09:08;;;;;;;5.00;3.85;;;;;;;17.25;81.98;99695.28;5091947;28;20142;-80
2023/07/06 04:11:34;;;;;;;6.72;4.25;;;;;;;17.22;80.76;99670.00;5092040;28;20125;-80
2023/07/06 04:14:00;;;;;;;6.00;4.47;;;;;;;17.60;81.24;99703.19;5092192;28;20032;-81
2023/07/06 04:16:26;;;;;;;6.13;4.10;;;;;;;17.80;79.19;99694.66;5091739;28;20040;-81
2023/07/06 04:18:52;;;;;;;6.30;4.28;;;;;;;18.08;76.93;99701.31;5091936;28;20107;-82
2023/07/06 04:21:18;;;;;;;5.45;3.70;;;;;;;18.35;75.76;99695.69;5091723;28;20107;-81
2023/07/06 04:23:47;;;;;;;7.45;4.30;;;;;;;18.55;72.65;99659.84;5091851;28;20361;-81
2023/07/06 04:26:14;;;;;;;6.50;4.45;;;;;;;19.29;69.78;99707.53;5091856;28;20140;-81
2023/07/06 04:28:40;;;;;;;5.18;4.38;;;;;;;19.31;69.00;99679.22;5091833;28;20505;-81
2023/07/06 04:31:06;;;;;;;4.32;3.78;;;;;;;19.46;68.35;99708.78;5091878;28;20043;-81
2023/07/06 04:33:31;;;;;;;5.25;4.43;;;;;;;19.19;68.81;99694.25;5090264;28;20032;-81
2023/07/06 04:35:57;;;;;;;5.93;3.45;;;;;;;19.17;68.18;99708.53;5091519;28;20135;-81
2023/07/06 04:38:25;;;;;;;6.43;4.63;;;;;;;18.98;70.50;99698.63;5091596;28;20061;-81
2023/07/06 04:40:51;;;;;;;5.68;3.83;;;;;;;18.90;71.11;99698.41;5091927;28;20058;-81
2023/07/06 04:43:16;;;;;;;6.28;3.97;;;;;;;18.81;71.85;99702.63;5091577;28;20088;-81
2023/07/06 04:45:44;;;;;;;8.00;4.13;;;;;;;18.68;71.93;99704.53;5091959;28;20032;-81
2023/07/06 04:48:10;;;;;;;4.43;3.45;;;;;;;18.62;70.98;99697.94;5091415;28;20029;-81
2023/07/06 04:50:37;;;;;;;6.90;4.60;;;;;;;18.64;70.82;99708.38;5093585;28;20081;-81
2023/07/06 04:53:03;;;;;;;5.32;4.20;;;;;;;18.66;70.83;99723.09;5095447;28;20054;-81
2023/07/06 04:55:30;;;;;;;4.80;3.72;;;;;;;18.64;71.81;99732.13;5095135;28;20392;-81
2023/07/06 04:57:58;;;;;;;6.05;3.97;;;;;;;18.61;72.24;99733.19;5095374;28;20080;-81
2023/07/06 05:00:28;;;;;;;7.95;3.78;;;;;;;18.41;72.68;99703.13;5095160;28;20032;-81
2023/07/06 05:02:58;;;;;;;5.57;3.95;;;;;;;18.48;72.64;99724.56;5095012;28;20020;-81
2023/07/06 05:05:26;;;;;;;4.72;4.05;;;;;;;18.27;73.44;99710.41;5095094;28;20032;-81
2023/07/06 05:07:52;;;;;;;4.65;3.90;;;;;;;18.29;72.42;99719.91;5095228;28;20020;-81
2023/07/06 05:10:18;;;;;;;6.05;3.95;;;;;;;18.31;73.52;99730.31;5094701;28;20487;-81
2023/07/06 05:12:44;;;;;;;5.93;3.80;;;;;;;18.34;72.82;99730.09;5094884;28;20020;-81
2023/07/06 05:15:10;;;;;;;8.65;4.30;;;;;;;18.27;72.33;99715.69;5094782;28;20418;-81
2023/07/06 05:17:38;;;;;;;6.10;4.47;;;;;;;18.28;72.10;99726.09;5094942;28;20055;-81
2023/07/06 05:20:06;;;;;;;6.13;4.40;;;;;;;18.32;71.19;99735.47;5094861;28;20084;-81
2023/07/06 05:22:35;;;;;;;6.22;3.85;;;;;;;18.33;72.11;99737.16;5094614;28;20013;-81
2023/07/06 05:25:01;;;;;;;4.45;3.67;;;;;;;18.54;71.83;99750.47;5094674;28;20035;-81
2023/07/06 05:27:26;;;;;;;6.78;4.07;;;;;;;18.62;72.22;99758.59;5094390;28;20024;-81
2023/07/06 05:29:51;;;;;;;5.93;4.13;;;;;;;18.64;72.45;99761.13;5094372;28;20082;-81
2023/07/06 05:32:16;;;;;;;7.53;4.03;;;;;;;18.44;72.77;99718.69;5094518;28;20058;-81
2023/07/06 05:34:42;;;;;;;7.93;4.50;;;;;;;18.61;72.72;99748.19;5094934;28;20024;-81
2023/07/06 05:37:07;;;;;;;6.18;4.35;;;;;;;18.62;72.97;99744.56;5094219;28;20040;-81
2023/07/06 05:39:33;;;;;;;4.50;3.70;;;;;;;18.63;73.45;99741.00;5094216;28;20020;-81
2023/07/06 05:41:58;;;;;;;9.45;4.72;;;;;;;18.64;73.72;99738.22;5094348;28;20035;-81
2023/07/06 05:44:23;;;;;;;8.40;4.25;;;;;;;18.86;73.82;99766.44;5094072;28;20016;-81
2023/07/06 05:46:49;;;;;;;6.00;4.00;;;;;;;18.71;73.52;99741.28;5094431;28;20032;-81
2023/07/06 05:49:14;;;;;;;8.90;5.20;;;;;;;18.72;73.94;99745.59;5094252;28;20016;-81
2023/07/06 05:51:40;;;;;;;10.65;4.90;;;;;;;18.69;75.03;99746.66;5094221;28;20067;-81
2023/07/06 05:54:05;;;;;;;7.03;4.63;;;;;;;18.69;75.90;99749.28;5094204;28;20025;-81
2023/07/06 05:56:31;;;;;;;5.28;4.25;;;;;;;18.55;76.21;99733.69;5093780;28;20028;-81
2023/07/06 05:58:59;;;;;;;5.00;4.50;;;;;;;18.72;76.77;99765.84;5093997;28;20028;-81
2023/07/06 06:01:25;;;;;;;5.95;3.88;;;;;;;18.82;76.79;99785.25;5093400;28;20024;-81
2023/07/06 06:03:51;;;;;;;7.30;4.90;;;;;;;18.72;76.89;99756.13;5094123;28;20379;-81
2023/07/06 06:06:21;;;;;;;7.18;4.68;;;;;;;18.78;76.51;99758.28;5093723;28;20028;-81
2023/07/06 06:08:48;;;;;;;6.95;4.72;;;;;;;18.93;76.16;99761.50;5093972;28;20062;-81
2023/07/06 06:11:15;;;;;;;5.80;4.57;;;;;;;19.18;75.81;99776.22;5093530;28;20028;-81
2023/07/06 06:13:43;;;;;;;10.05;4.68;;;;;;;19.20;75.93;99750.53;5093827;28;20058;-81
2023/07/06 06:16:11;;;;;;;8.68;4.82;;;;;;;19.39;74.72;99778.94;5094150;28;20031;-81
2023/07/06 06:18:39;;;;;;;5.75;4.80;;;;;;;19.38;74.82;99751.69;5093600;28;20020;-81
2023/07/06 06:21:07;;;;;;;7.22;4.80;;;;;;;19.54;74.48;99756.53;5093504;28;20035;-81
2023/07/06 06:23:33;;;;;;;8.98;4.85;;;;;;;19.66;73.89;99750.28;5093381;28;20467;-81
2023/07/06 06:25:59;;;;;;;7.82;4.63;;;;;;;19.97;71.62;99749.53;5093546;28;20034;-81
2023/07/06 06:28:25;;;;;;;10.90;4.82;;;;;;;20.26;71.17;99758.47;5093006;28;20459;-81
2023/07/06 06:30:51;;;;;;;6.10;4.47;;;;;;;20.75;70.37;99774.63;5093593;28;20032;-81
2023/07/06 06:33:17;;;;;;;7.18;4.70;;;;;;;21.19;68.71;99770.69;5093306;28;20027;-81
2023/07/06 06:35:44;;;;;;;8.73;5.20;;;;;;;21.55;67.79;99752.53;5093050;28;20368;-81
2023/07/06 06:38:10;;;;;;;7.38;5.10;;;;;;;22.62;65.79;99771.75;5093358;28;20059;-81
2023/07/06 06:40:36;;;;;;;9.65;5.05;;;;;;;23.62;63.32;99755.81;5092946;28;20461;-81
2023/07/06 06:43:03;;;;;;;7.13;4.60;;;;;;;24.41;60.92;99779.91;5093034;28;20028;-81
2023/07/06 06:45:28;;;;;;;7.18;4.65;;;;;;;25.07;58.84;99782.72;5091690;28;20526;-81
2023/07/06 06:47:54;;;;;;;5.53;4.18;;;;;;;25.17;57.19;99771.97;5093236;28;20022;-82
2023/07/06 06:50:20;;;;;;;6.78;4.22;;;;;;;25.19;57.19;99793.09;5092882;28;20460;-82
2023/07/06 06:52:46;;;;;;;5.43;4.57;;;;;;;25.11;57.35;99785.91;5092937;28;20024;-81
2023/07/06 06:55:12;;;;;;;4.88;4.35;;;;;;;25.10;57.04;99777.09;5092912;28;20052;-81
2023/07/06 06:57:37;;;;;;;5.95;4.32;;;;;;;25.23;56.39;99773.13;5092671;28;20454;-82
2023/07/06 07:00:10;;;;;;;7.25;4.80;;;;;;;25.24;56.33;99778.31;5092956;28;20024;-82
2023/07/06 07:02:38;;;;;;;9.25;4.47;;;;;;;25.01;56.31;99778.03;5092750;28;20059;-82
2023/07/06 07:05:09;;;;;;;7.97;4.70;;;;;;;24.93;56.22;99779.84;5092969;28;20537;-81
2023/07/06 07:07:37;;;;;;;8.40;4.97;;;;;;;25.19;57.36;99799.28;5092463;28;20032;-82
2023/07/06 07:10:09;;;;;;;4.90;4.00;;;;;;;25.62;55.49;99789.38;5092652;28;20027;-82
2023/07/06 07:12:42;;;;;;;17.92;5.47;;;;;;;26.18;55.36;99797.59;5091813;28;20072;-81
2023/07/06 07:15:10;;;;;;;9.93;5.18;;;;;;;27.13;54.16;99808.38;5092730;28;20372;-82
2023/07/06 07:17:36;;;;;;;6.35;4.43;;;;;;;28.39;52.29;99784.75;5090158;28;20094;-82
2023/07/06 07:20:02;;;;;;;6.50;4.00;;;;;;;29.92;49.50;99789.28;5092785;28;20111;-82
2023/07/06 07:22:28;;;;;;;13.90;4.88;;;;;;;31.42;47.10;99810.28;5092109;28;20483;-82
2023/07/06 07:24:53;;;;;;;19.05;5.50;;;;;;;31.89;45.35;99814.75;5092698;28;20028;-82
2023/07/06 07:27:19;;;;;;;5.05;4.28;;;;;;;32.76;44.46;99796.66;5092489;28;20539;-82
2023/07/06 07:29:47;;;;;;;4.68;4.00;;;;;;;33.98;42.58;99808.31;5092896;28;20028;-82
2023/07/06 07:32:13;;;;;;;4.95;3.67;;;;;;;35.02;41.27;99793.16;5092696;28;20094;-82
2023/07/06 07:34:38;;;;;;;4.80;4.40;;;;;;;36.20;40.13;99807.94;5092278;28;20432;-82
2023/07/06 07:37:05;;;;;;;5.10;4.25;;;;;;;37.65;39.06;99817.75;5088724;28;20075;-83
2023/07/06 07:39:31;;;;;;;4.72;4.10;;;;;;;38.81;37.25;99822.63;5072059;28;20059;-83
2023/07/06 07:41:56;;;;;;;5.55;4.13;;;;;;;39.60;36.18;99804.97;5072003;28;20538;-80
2023/07/06 07:44:21;;;;;;;4.75;4.15;;;;;;;40.37;35.51;99806.41;5071889;28;20020;-80
2023/07/06 07:46:47;;;;;;;4.38;3.90;;;;;;;40.93;34.73;99805.91;5072051;28;20031;-81
2023/07/06 07:49:12;;;;;;;4.88;4.38;;;;;;;40.52;33.59;99803.78;5072017;28;20483;-81
2023/07/06 07:51:39;;;;;;;5.40;4.30;;;;;;;40.87;33.64;99794.94;5071679;28;20039;-81
2023/07/06 07:54:04;;;;;;;4.65;4.18;;;;;;;41.37;32.92;99798.94;5072242;28;20074;-81
2023/07/06 07:56:30;;;;;;;5.25;3.92;;;;;;;41.60;33.10;99785.88;5071564;28;20052;-80
2023/07/06 07:58:55;;;;;;;6.13;3.60;;;;;;;41.84;33.00;99797.13;5071925;28;20463;-81
2023/07/06 08:01:23;;;;;;;3.80;3.50;;;;;;;42.02;33.22;99803.97;5071400;28;20051;-80
2023/07/06 08:03:51;;;;;;;4.45;4.05;;;;;;;42.08;32.49;99791.91;5071961;28;20472;-80
2023/07/06 08:06:18;;;;;;;4.68;3.75;;;;;;;42.22;32.68;99794.88;5071826;28;20493;-80
2023/07/06 08:08:44;;;;;;;4.72;3.70;;;;;;;42.29;31.68;99788.06;5071548;28;20021;-81
2023/07/06 08:11:14;;;;;;;4.35;3.40;;;;;;;42.27;32.08;99803.94;5071907;28;20063;-80
2023/07/06 08:13:40;;;;;;;4.72;3.95;;;;;;;41.97;31.90;99793.00;5071732;28;20029;-81
2023/07/06 08:16:05;;;;;;;4.50;3.70;;;;;;;41.16;31.88;99793.72;5071923;28;20070;-80
2023/07/06 08:18:31;;;;;;;5.00;3.60;;;;;;;39.71;32.46;99789.56;5071513;28;20479;-80
2023/07/06 08:20:57;;;;;;;3.90;3.35;;;;;;;37.85;33.36;99770.25;5071478;28;20032;-80
2023/07/06 08:23:25;;;;;;;3.13;2.85;;;;;;;36.26;35.32;99781.75;5071366;28;20027;-80
2023/07/06 08:25:51;;;;;;;4.20;3.50;;;;;;;34.88;36.42;99788.91;5074203;28;20024;-80
2023/07/06 08:28:21;;;;;;;3.55;3.00;;;;;;;33.78;36.82;99790.34;5075764;28;20024;-80
2023/07/06 08:30:49;;;;;;;5.47;3.70;;;;;;;32.51;37.97;99770.38;5073116;28;20405;-80
2023/07/06 08:33:15;;;;;;;3.97;3.33;;;;;;;31.88;39.21;99782.66;5075298;28;20025;-80
2023/07/06 08:35:42;;;;;;;4.10;3.22;;;;;;;31.24;40.57;99787.44;5074841;28;20032;-80
2023/07/06 08:38:08;;;;;;;4.90;3.60;;;;;;;30.58;41.01;99779.03;5075304;28;20046;-80
2023/07/06 08:40:35;;;;;;;5.57;3.78;;;;;;;30.21;40.82;99799.88;5074799;28;20535;-80
2023/07/06 08:43:04;;;;;;;3.60;3.00;;;;;;;29.82;42.09;99787.75;5075468;28;20645;-80
2023/07/06 08:45:40;;;;;;;4.38;3.35;;;;;;;29.63;42.48;99795.66;5074982;28;20391;-80
2023/07/06 08:48:12;;;;;;;4.22;3.45;;;;;;;29.20;43.07;99766.88;5075186;28;20043;-80
2023/07/06 08:50:40;;;;;;;4.78;3.30;;;;;;;29.04;43.65;99773.31;5075006;28;20037;-81
2023/07/06 08:53:09;;;;;;;5.20;3.80;;;;;;;28.91;43.53;99788.34;5075237;28;20025;-82
2023/07/06 08:55:35;;;;;;;4.88;3.20;;;;;;;28.49;43.91;99768.41;5074927;28;20025;-81
2023/07/06 08:58:03;;;;;;;5.68;3.47;;;;;;;28.39;43.87;99771.34;5075252;28;20498;-82
2023/07/06 09:00:31;;;;;;;5.97;4.20;;;;;;;28.16;44.25;99744.63;5074519;28;20032;-82
2023/07/06 09:03:08;;;;;;;5.55;3.97;;;;;;;28.31;43.46;99771.41;5075018;28;20020;-82
2023/07/06 09:05:37;;;;;;;4.95;3.10;;;;;;;28.01;43.95;99766.00;5074744;28;20036;-81
2023/07/06 09:08:03;;;;;;;4.25;2.80;;;;;;;28.02;44.71;99773.03;5074799;28;20448;-82
2023/07/06 09:10:29;;;;;;;3.60;2.80;;;;;;;27.86;44.22;99759.81;5074446;28;20075;-82
2023/07/06 09:13:11;;;;;;;4.78;2.70;;;;;;;27.91;45.02;99773.47;5074854;28;20024;-82
2023/07/06 09:15:37;;;;;;;4.55;3.40;;;;;;;27.82;45.36;99763.84;5074561;28;20054;-82
2023/07/06 09:18:03;;;;;;;4.43;3.25;;;;;;;27.76;45.69;99759.19;5074428;28;20029;-82
2023/07/06 09:20:29;;;;;;;4.53;3.50;;;;;;;27.83;45.44;99770.84;5074236;28;20047;-82
2023/07/06 09:22:54;;;;;;;5.32;3.70;;;;;;;27.82;45.66;99779.91;5074612;28;20020;-82
2023/07/06 09:25:35;;;;;;;4.30;3.42;;;;;;;27.65;45.32;99791.72;5074424;28;20052;-82
2023/07/06 09:28:01;;;;;;;4.25;3.10;;;;;;;27.56;45.83;99788.28;5074625;28;20025;-82
2023/07/06 09:30:30;;;;;;;4.00;2.95;;;;;;;27.35;45.80;99773.69;5074326;28;20624;-82
2023/07/06 09:33:14;;;;;;;4.70;3.58;;;;;;;27.46;46.19;99795.69;5074409;28;20149;-82
2023/07/06 09:35:41;;;;;;;5.50;3.35;;;;;;;27.45;46.60;99794.00;5073239;28;20021;-82
2023/07/06 09:38:12;;;;;;;5.38;3.50;;;;;;;27.38;46.79;99793.03;5074085;28;20025;-82
2023/07/06 09:40:38;;;;;;;4.85;3.20;;;;;;;27.33;46.08;99798.94;5074115;28;20440;-82
2023/07/06 09:43:03;;;;;;;3.83;3.35;;;;;;;27.23;45.86;99788.47;5073776;28;20031;-82
2023/07/06 09:45:30;;;;;;;4.75;3.70;;;;;;;27.17;46.21;99774.94;5089095;28;20024;-82
2023/07/06 09:48:01;;;;;;;5.65;3.35;;;;;;;27.15;46.13;99776.97;5093700;28;20464;-82
2023/07/06 09:50:35;;;;;;;4.85;3.33;;;;;;;27.23;45.46;99796.50;5093873;28;20530;-81
2023/07/06 09:53:05;;;;;;;6.07;3.67;;;;;;;27.25;46.32;99797.13;5093693;28;20036;-82
2023/07/06 09:55:31;;;;;;;7.05;3.50;;;;;;;27.25;45.87;99797.13;5093140;28;20557;-82
2023/07/06 09:57:58;;;;;;;6.97;3.42;;;;;;;27.07;45.93;99772.47;5093060;28;20024;-82
2023/07/06 10:00:34;;;;;;;4.93;3.40;;;;;;;27.26;46.80;99803.31;5092723;28;20028;-81
2023/07/06 10:03:18;;;;;;;4.70;3.95;;;;;;;27.17;46.87;99780.28;5087250;28;20039;-82
2023/07/06 10:05:57;;;;;;;4.47;3.00;;;;;;;27.27;46.38;99792.44;5090438;28;20036;-82
2023/07/06 10:08:39;;;;;;;5.57;3.17;;;;;;;27.33;46.17;99786.38;5092664;28;20027;-82
2023/07/06 10:11:28;;;;;;;4.75;3.72;;;;;;;27.25;45.53;99797.13;5091166;28;20024;-82
2023/07/06 10:14:09;;;;;;;4.88;3.30;;;;;;;27.09;46.07;99779.34;5093709;28;20027;-82
2023/07/06 10:17:14;;;;;;;4.43;2.95;;;;;;;27.10;46.25;99766.81;5093513;28;20039;-82
2023/07/06 10:20:00;;;;;;;6.60;3.38;;;;;;;27.26;45.62;99800.63;5090697;28;20081;-81
2023/07/06 10:22:44;;;;;;;4.43;3.45;;;;;;;27.34;45.63;99790.72;5091016;28;20107;-82
2023/07/06 10:25:18;;;;;;;4.28;3.20;;;;;;;27.36;45.36;99788.72;5091197;28;20372;-82
2023/07/06 10:27:48;;;;;;;5.00;3.28;;;;;;;27.29;45.29;99776.22;5090805;28;20035;-82
2023/07/06 10:30:25;;;;;;;6.10;3.65;;;;;;;27.26;46.05;99769.41;5090589;28;20040;-82
2023/07/06 10:32:55;;;;;;;11.30;3.80;;;;;;;27.39;44.95;99784.00;5090088;28;20028;-82
2023/07/06 10:35:33;;;;;;;4.00;3.42;;;;;;;27.21;44.76;99766.41;5090838;28;20107;-82
2023/07/06 10:37:59;;;;;;;3.60;3.30;;;;;;;27.23;45.56;99769.75;5091082;28;20048;-82
2023/07/06 10:40:35;;;;;;;3.65;3.15;;;;;;;27.38;46.00;99791.19;5090713;28;20604;-82
2023/07/06 10:43:12;;;;;;;4.28;3.15;;;;;;;27.42;46.79;99791.69;5090741;28;20035;-82
2023/07/06 10:45:49;;;;;;;3.45;3.13;;;;;;;27.51;46.51;99783.41;5090455;28;20052;-82
2023/07/06 10:48:16;;;;;;;4.05;2.90;;;;;;;27.56;46.40;99794.44;5089856;28;20028;-82
2023/07/06 10:50:50;;;;;;;5.68;3.78;;;;;;;27.56;45.55;99780.25;5039911;28;20048;-82
2023/07/06 10:53:43;;;;;;;4.22;3.00;;;;;;;27.65;45.23;99789.88;5090486;28;20032;-82
2023/07/06 10:56:11;;;;;;;3.63;2.85;;;;;;;27.63;44.84;99785.69;5023291;28;20053;-82
2023/07/06 10:58:45;;;;;;;3.38;3.08;;;;;;;27.30;45.10;99762.66;5010406;28;20560;-82
2023/07/06 11:01:10;;;;;;;4.05;3.20;;;;;;;27.33;45.54;99775.69;5010686;28;20046;-82
2023/07/06 11:03:38;;;;;;;3.83;3.35;;;;;;;27.23;44.72;99755.53;5010364;28;20116;-82
2023/07/06 11:06:13;;;;;;;4.43;2.92;;;;;;;27.13;45.71;99770.97;5010613;28;20072;-82
2023/07/06 11:09:07;;;;;;;6.63;3.60;;;;;;;27.19;45.67;99789.00;5010553;28;20065;-82
2023/07/06 11:11:59;;;;;;;4.78;3.20;;;;;;;27.17;45.65;99759.72;5009912;28;20593;-82
2023/07/06 11:14:30;;;;;;;6.35;3.35;;;;;;;27.44;44.90;99795.03;4971428;28;20561;-82
2023/07/06 11:17:02;;;;;;;3.10;2.72;;;;;;;27.50;45.41;99786.28;4971637;28;20098;-82
2023/07/06 11:19:33;;;;;;;5.20;3.17;;;;;;;27.62;45.52;99792.91;4971252;28;20531;-82
2023/07/06 11:22:05;;;;;;;3.45;2.90;;;;;;;27.50;44.58;99762.22;4971168;28;20035;-82
2023/07/06 11:24:38;;;;;;;4.35;2.67;;;;;;;27.54;44.36;99780.41;4971181;28;20122;-82
2023/07/06 11:27:11;;;;;;;4.07;3.20;;;;;;;27.54;45.39;99768.88;4971034;28;20113;-82
2023/07/06 11:29:38;;;;;;;3.90;3.50;;;;;;;27.47;45.25;99760.72;4970930;28;20080;-82
2023/07/06 11:32:26;;;;;;;4.75;2.85;;;;;;;27.71;45.07;99781.13;4979789;28;20112;-82
2023/07/06 11:35:42;;;;;;;4.82;2.72;;;;;;;27.86;45.10;99786.56;5029724;28;20033;-82
2023/07/06 11:38:38;;;;;;;5.00;2.90;;;;;;;27.95;43.25;99787.31;4971123;28;20054;-82
2023/07/06 11:41:24;;;;;;;3.35;2.70;;;;;;;28.01;43.93;99782.06;4970938;28;20047;-82
2023/07/06 11:43:55;;;;;;;3.20;2.90;;;;;;;28.11;43.49;99779.16;4970733;28;20101;-82
2023/07/06 11:47:02;;;;;;;2.63;2.42;;;;;;;28.14;43.33;99775.25;4971114;28;20486;-82